sensor_id;sensor_type;location;lat;lon;timestamp;pressure;altitude;pressure_sealevel;temperature;humidity
5053;BME280;2545;50.892;5.740;2023-03-17T00:01:31;56274.84;;;-142.21;43.35
5053;BME280;2545;50.892;5.740;2023-03-17T00:03:56;56259.16;;;-142.21;43.27
5053;BME280;2545;50.892;5.740;2023-03-17T00:06:28;56265.03;;;-142.21;43.49
5053;BME280;2545;50.892;5.740;2023-03-17T00:08:54;56245.44;;;-142.21;42.96
5053;BME280;2545;50.892;5.740;2023-03-17T00:11:23;56265.03;;;-142.21;43.15
5053;BME280;2545;50.892;5.740;2023-03-17T00:13:48;56249.34;;;-142.21;43.45
5053;BME280;2545;50.892;5.740;2023-03-17T00:16:22;56225.81;;;-142.21;43.86
5053;BME280;2545;50.892;5.740;2023-03-17T00:18:50;56229.75;;;-142.21;44.13
5053;BME280;2545;50.892;5.740;2023-03-17T00:21:21;56257.19;;;-142.21;43.34
5053;BME280;2545;50.892;5.740;2023-03-17T00:23:50;56265.03;;;-142.21;43.85
5053;BME280;2545;50.892;5.740;2023-03-17T00:26:16;56216.00;;;-142.21;43.41
5053;BME280;2545;50.892;5.740;2023-03-17T00:28:42;56274.84;;;-142.21;43.15
5053;BME280;2545;50.892;5.740;2023-03-17T00:31:14;56253.28;;;-142.21;43.34
5053;BME280;2545;50.892;5.740;2023-03-17T00:33:43;56233.66;;;-142.21;43.39
5053;BME280;2545;50.892;5.740;2023-03-17T00:36:15;56237.59;;;-142.21;43.88
5053;BME280;2545;50.892;5.740;2023-03-17T00:38:42;56243.47;;;-142.21;43.27
5053;BME280;2545;50.892;5.740;2023-03-17T00:41:08;56284.66;;;-142.21;43.64
5053;BME280;2545;50.892;5.740;2023-03-17T00:43:37;56235.63;;;-142.21;43.83
5053;BME280;2545;50.892;5.740;2023-03-17T00:46:12;56239.56;;;-142.21;43.36
5053;BME280;2545;50.892;5.740;2023-03-17T00:48:39;56272.88;;;-142.21;43.29
5053;BME280;2545;50.892;5.740;2023-03-17T00:51:05;56221.91;;;-142.21;42.93
5053;BME280;2545;50.892;5.740;2023-03-17T00:53:31;56212.09;;;-142.21;42.62
5053;BME280;2545;50.892;5.740;2023-03-17T00:55:56;56249.34;;;-142.21;42.95
5053;BME280;2545;50.892;5.740;2023-03-17T00:58:29;56225.81;;;-142.21;43.42
5053;BME280;2545;50.892;5.740;2023-03-17T01:00:56;56202.28;;;-142.21;43.65
5053;BME280;2545;50.892;5.740;2023-03-17T01:03:21;56214.06;;;-142.21;43.72
5053;BME280;2545;50.892;5.740;2023-03-17T01:05:48;56212.09;;;-142.21;44.22
5053;BME280;2545;50.892;5.740;2023-03-17T01:08:14;56219.94;;;-142.21;44.42
5053;BME280;2545;50.892;5.740;2023-03-17T01:10:40;56231.72;;;-142.21;44.62
5053;BME280;2545;50.892;5.740;2023-03-17T01:13:07;56243.47;;;-142.21;44.83
5053;BME280;2545;50.892;5.740;2023-03-17T01:15:36;56227.78;;;-142.21;44.64
5053;BME280;2545;50.892;5.740;2023-03-17T01:18:03;56253.28;;;-142.21;44.67
5053;BME280;2545;50.892;5.740;2023-03-17T01:20:31;56225.81;;;-142.21;44.64
5053;BME280;2545;50.892;5.740;2023-03-17T01:22:57;56276.81;;;-142.21;44.35
5053;BME280;2545;50.892;5.740;2023-03-17T01:25:23;56202.28;;;-142.21;44.18
5053;BME280;2545;50.892;5.740;2023-03-17T01:27:48;56265.03;;;-142.21;44.46
5053;BME280;2545;50.892;5.740;2023-03-17T01:30:33;56296.41;;;-142.21;44.43
5053;BME280;2545;50.892;5.740;2023-03-17T01:32:59;56235.63;;;-142.21;44.76
5053;BME280;2545;50.892;5.740;2023-03-17T01:35:27;56261.13;;;-142.21;45.16
5053;BME280;2545;50.892;5.740;2023-03-17T01:37:54;56247.38;;;-142.21;45.31
5053;BME280;2545;50.892;5.740;2023-03-17T01:40:23;56231.72;;;-142.21;45.40
5053;BME280;2545;50.892;5.740;2023-03-17T01:51:05;56214.06;;;-142.21;46.33
5053;BME280;2545;50.892;5.740;2023-03-17T01:53:34;56233.66;;;-142.21;46.36
5053;BME280;2545;50.892;5.740;2023-03-17T01:56:01;56229.75;;;-142.21;45.97
5053;BME280;2545;50.892;5.740;2023-03-17T01:58:27;56263.06;;;-142.21;46.38
5053;BME280;2545;50.892;5.740;2023-03-17T02:00:53;56274.84;;;-142.21;46.35
5053;BME280;2545;50.892;5.740;2023-03-17T02:03:19;56255.22;;;-142.21;46.24
5053;BME280;2545;50.892;5.740;2023-03-17T02:05:45;56225.81;;;-142.21;46.38
5053;BME280;2545;50.892;5.740;2023-03-17T02:08:14;56249.34;;;-142.21;46.35
5053;BME280;2545;50.892;5.740;2023-03-17T02:10:41;56251.31;;;-142.21;46.54
5053;BME280;2545;50.892;5.740;2023-03-17T02:13:09;56255.22;;;-142.21;46.47
5053;BME280;2545;50.892;5.740;2023-03-17T02:15:43;56284.66;;;-142.21;46.65
5053;BME280;2545;50.892;5.740;2023-03-17T02:18:10;56210.13;;;-142.21;47.20
5053;BME280;2545;50.892;5.740;2023-03-17T02:23:04;56225.81;;;-142.21;47.62
5053;BME280;2545;50.892;5.740;2023-03-17T02:25:32;56249.34;;;-142.21;47.35
5053;BME280;2545;50.892;5.740;2023-03-17T02:28:03;56261.13;;;-142.21;47.41
5053;BME280;2545;50.892;5.740;2023-03-17T02:30:34;56251.31;;;-142.21;47.44
5053;BME280;2545;50.892;5.740;2023-03-17T02:32:59;56265.03;;;-142.21;47.82
5053;BME280;2545;50.892;5.740;2023-03-17T02:35:25;56251.31;;;-142.21;47.46
5053;BME280;2545;50.892;5.740;2023-03-17T02:37:51;56263.06;;;-142.21;47.46
5053;BME280;2545;50.892;5.740;2023-03-17T02:40:16;56245.44;;;-142.21;47.14
5053;BME280;2545;50.892;5.740;2023-03-17T02:42:43;56268.97;;;-142.21;47.08
5053;BME280;2545;50.892;5.740;2023-03-17T02:45:10;56217.97;;;-142.21;46.80
5053;BME280;2545;50.892;5.740;2023-03-17T02:47:35;56239.56;;;-142.21;47.38
5053;BME280;2545;50.892;5.740;2023-03-17T02:50:01;56253.28;;;-142.21;47.09
5053;BME280;2545;50.892;5.740;2023-03-17T02:52:26;56255.22;;;-142.21;46.98
5053;BME280;2545;50.892;5.740;2023-03-17T02:54:52;56247.38;;;-142.21;47.40
5053;BME280;2545;50.892;5.740;2023-03-17T02:57:17;56216.00;;;-142.21;47.75
5053;BME280;2545;50.892;5.740;2023-03-17T02:59:43;56253.28;;;-142.21;47.97
5053;BME280;2545;50.892;5.740;2023-03-17T03:02:09;56227.78;;;-142.21;47.71
5053;BME280;2545;50.892;5.740;2023-03-17T03:04:35;56241.50;;;-142.21;47.91
5053;BME280;2545;50.892;5.740;2023-03-17T03:07:01;56251.31;;;-142.21;47.69
5053;BME280;2545;50.892;5.740;2023-03-17T03:09:28;56255.22;;;-142.21;47.62
5053;BME280;2545;50.892;5.740;2023-03-17T03:11:53;56204.25;;;-142.21;47.41
5053;BME280;2545;50.892;5.740;2023-03-17T03:14:19;56249.34;;;-142.21;46.81
5053;BME280;2545;50.892;5.740;2023-03-17T03:16:45;56284.66;;;-142.21;47.21
5053;BME280;2545;50.892;5.740;2023-03-17T03:19:10;56245.44;;;-142.21;47.59
5053;BME280;2545;50.892;5.740;2023-03-17T03:21:36;56278.78;;;-142.21;47.76
5053;BME280;2545;50.892;5.740;2023-03-17T03:24:02;56276.81;;;-142.21;47.43
5053;BME280;2545;50.892;5.740;2023-03-17T03:26:27;56249.34;;;-142.21;47.78
5053;BME280;2545;50.892;5.740;2023-03-17T03:28:53;56214.06;;;-142.21;47.98
5053;BME280;2545;50.892;5.740;2023-03-17T03:31:18;56237.59;;;-142.21;48.23
5053;BME280;2545;50.892;5.740;2023-03-17T03:33:44;56245.44;;;-142.21;47.36
5053;BME280;2545;50.892;5.740;2023-03-17T03:36:10;56276.81;;;-142.21;47.50
5053;BME280;2545;50.892;5.740;2023-03-17T03:38:35;56259.16;;;-142.21;47.96
5053;BME280;2545;50.892;5.740;2023-03-17T03:41:01;56217.97;;;-142.21;47.59
5053;BME280;2545;50.892;5.740;2023-03-17T03:43:26;56272.88;;;-142.21;48.36
5053;BME280;2545;50.892;5.740;2023-03-17T03:45:52;56237.59;;;-142.21;48.25
5053;BME280;2545;50.892;5.740;2023-03-17T03:48:20;56221.91;;;-142.21;48.63
5053;BME280;2545;50.892;5.740;2023-03-17T03:50:46;56245.44;;;-142.21;48.59
5053;BME280;2545;50.892;5.740;2023-03-17T03:53:11;56245.44;;;-142.21;48.62
5053;BME280;2545;50.892;5.740;2023-03-17T03:55:37;56259.16;;;-142.21;49.10
5053;BME280;2545;50.892;5.740;2023-03-17T03:58:03;56231.72;;;-142.21;48.96
5053;BME280;2545;50.892;5.740;2023-03-17T04:00:28;56251.31;;;-142.21;48.96
5053;BME280;2545;50.892;5.740;2023-03-17T04:02:53;56239.56;;;-142.21;49.19
5053;BME280;2545;50.892;5.740;2023-03-17T04:05:19;56219.94;;;-142.21;49.06
5053;BME280;2545;50.892;5.740;2023-03-17T04:07:45;56208.16;;;-142.21;49.24
5053;BME280;2545;50.892;5.740;2023-03-17T04:10:13;56221.91;;;-142.21;49.59
5053;BME280;2545;50.892;5.740;2023-03-17T04:12:39;56247.38;;;-142.21;49.46
5053;BME280;2545;50.892;5.740;2023-03-17T04:15:06;56208.16;;;-142.21;49.72
5053;BME280;2545;50.892;5.740;2023-03-17T04:17:33;56276.81;;;-142.21;49.68
5053;BME280;2545;50.892;5.740;2023-03-17T04:19:58;56214.06;;;-142.21;49.78
5053;BME280;2545;50.892;5.740;2023-03-17T04:22:24;56235.63;;;-142.21;50.34
5053;BME280;2545;50.892;5.740;2023-03-17T04:24:49;56253.28;;;-142.21;50.70
5053;BME280;2545;50.892;5.740;2023-03-17T04:27:15;56257.19;;;-142.21;50.33
5053;BME280;2545;50.892;5.740;2023-03-17T04:29:42;56233.66;;;-142.21;50.18
5053;BME280;2545;50.892;5.740;2023-03-17T04:32:09;56229.75;;;-142.21;50.01
5053;BME280;2545;50.892;5.740;2023-03-17T04:34:35;56233.66;;;-142.21;50.23
5053;BME280;2545;50.892;5.740;2023-03-17T04:37:00;56259.16;;;-142.21;49.88
5053;BME280;2545;50.892;5.740;2023-03-17T04:39:26;56276.81;;;-142.21;50.37
5053;BME280;2545;50.892;5.740;2023-03-17T04:41:51;56219.94;;;-142.21;50.57
5053;BME280;2545;50.892;5.740;2023-03-17T04:44:17;56251.31;;;-142.21;50.33
5053;BME280;2545;50.892;5.740;2023-03-17T04:46:42;56233.66;;;-142.21;50.60
5053;BME280;2545;50.892;5.740;2023-03-17T04:49:07;56225.81;;;-142.21;50.74
5053;BME280;2545;50.892;5.740;2023-03-17T04:51:33;56288.56;;;-142.21;51.06
5053;BME280;2545;50.892;5.740;2023-03-17T04:54:01;56233.66;;;-142.21;51.43
5053;BME280;2545;50.892;5.740;2023-03-17T04:56:26;56186.59;;;-142.21;51.84
5053;BME280;2545;50.892;5.740;2023-03-17T04:58:52;56257.19;;;-142.21;51.62
5053;BME280;2545;50.892;5.740;2023-03-17T05:01:17;56251.31;;;-142.21;51.93
5053;BME280;2545;50.892;5.740;2023-03-17T05:03:42;56247.38;;;-142.21;52.32
5053;BME280;2545;50.892;5.740;2023-03-17T05:06:08;56253.28;;;-142.21;52.46
5053;BME280;2545;50.892;5.740;2023-03-17T05:08:33;56241.50;;;-142.21;52.37
5053;BME280;2545;50.892;5.740;2023-03-17T05:10:59;56235.63;;;-142.21;52.77
5053;BME280;2545;50.892;5.740;2023-03-17T05:13:25;56255.22;;;-142.21;53.00
5053;BME280;2545;50.892;5.740;2023-03-17T05:15:53;56286.63;;;-142.21;53.48
5053;BME280;2545;50.892;5.740;2023-03-17T05:18:21;56245.44;;;-142.21;53.60
5053;BME280;2545;50.892;5.740;2023-03-17T05:20:47;56243.47;;;-142.21;53.39
5053;BME280;2545;50.892;5.740;2023-03-17T05:23:12;56231.72;;;-142.21;53.89
5053;BME280;2545;50.892;5.740;2023-03-17T05:25:38;56255.22;;;-142.21;53.80
5053;BME280;2545;50.892;5.740;2023-03-17T05:28:04;56217.97;;;-142.21;53.57
5053;BME280;2545;50.892;5.740;2023-03-17T05:30:31;56241.50;;;-142.21;54.12
5053;BME280;2545;50.892;5.740;2023-03-17T05:32:56;56225.81;;;-142.21;54.48
5053;BME280;2545;50.892;5.740;2023-03-17T05:35:22;56216.00;;;-142.21;54.90
5053;BME280;2545;50.892;5.740;2023-03-17T05:37:48;56214.06;;;-142.21;55.19
5053;BME280;2545;50.892;5.740;2023-03-17T05:40:13;56263.06;;;-142.21;56.09
5053;BME280;2545;50.892;5.740;2023-03-17T05:42:39;56276.81;;;-142.21;56.83
5053;BME280;2545;50.892;5.740;2023-03-17T05:45:06;56272.88;;;-142.21;57.57
5053;BME280;2545;50.892;5.740;2023-03-17T05:47:32;56274.84;;;-142.21;58.54
5053;BME280;2545;50.892;5.740;2023-03-17T05:49:58;56233.66;;;-142.21;58.45
5053;BME280;2545;50.892;5.740;2023-03-17T05:52:24;56227.78;;;-142.21;58.50
5053;BME280;2545;50.892;5.740;2023-03-17T05:54:49;56249.34;;;-142.21;59.19
5053;BME280;2545;50.892;5.740;2023-03-17T05:57:17;56261.13;;;-142.21;59.94
5053;BME280;2545;50.892;5.740;2023-03-17T05:59:42;56221.91;;;-142.21;59.72
5053;BME280;2545;50.892;5.740;2023-03-17T06:02:08;56216.00;;;-142.21;60.20
5053;BME280;2545;50.892;5.740;2023-03-17T06:04:35;56284.66;;;-142.21;60.52
5053;BME280;2545;50.892;5.740;2023-03-17T06:07:00;56225.81;;;-142.21;60.55
5053;BME280;2545;50.892;5.740;2023-03-17T06:09:26;56245.44;;;-142.21;59.76
5053;BME280;2545;50.892;5.740;2023-03-17T06:11:52;56268.97;;;-142.21;58.16
5053;BME280;2545;50.892;5.740;2023-03-17T06:14:17;56296.41;;;-142.21;57.98
5053;BME280;2545;50.892;5.740;2023-03-17T06:16:43;56235.63;;;-142.21;56.83
5053;BME280;2545;50.892;5.740;2023-03-17T06:19:09;56231.72;;;-142.21;56.09
5053;BME280;2545;50.892;5.740;2023-03-17T06:21:34;56225.81;;;-142.21;56.02
5053;BME280;2545;50.892;5.740;2023-03-17T06:23:59;56255.22;;;-142.21;55.63
5053;BME280;2545;50.892;5.740;2023-03-17T06:26:25;56212.09;;;-142.21;55.36
5053;BME280;2545;50.892;5.740;2023-03-17T06:28:51;56212.09;;;-142.21;55.17
5053;BME280;2545;50.892;5.740;2023-03-17T06:31:16;56239.56;;;-142.21;54.90
5053;BME280;2545;50.892;5.740;2023-03-17T06:33:42;56239.56;;;-142.21;55.04
5053;BME280;2545;50.892;5.740;2023-03-17T06:36:08;56253.28;;;-142.21;55.06
5053;BME280;2545;50.892;5.740;2023-03-17T06:38:33;56251.31;;;-142.21;55.12
5053;BME280;2545;50.892;5.740;2023-03-17T06:40:59;56267.00;;;-142.21;55.06
5053;BME280;2545;50.892;5.740;2023-03-17T06:43:24;56270.91;;;-142.21;54.88
5053;BME280;2545;50.892;5.740;2023-03-17T06:45:49;56249.34;;;-142.21;54.57
5053;BME280;2545;50.892;5.740;2023-03-17T06:48:15;56257.19;;;-142.21;55.01
5053;BME280;2545;50.892;5.740;2023-03-17T06:50:40;56237.59;;;-142.21;54.69
5053;BME280;2545;50.892;5.740;2023-03-17T06:53:06;56229.75;;;-142.21;54.94
5053;BME280;2545;50.892;5.740;2023-03-17T06:55:31;56267.00;;;-142.21;54.64
5053;BME280;2545;50.892;5.740;2023-03-17T06:57:58;56229.75;;;-142.21;54.95
5053;BME280;2545;50.892;5.740;2023-03-17T07:00:25;56253.28;;;-142.21;54.84
5053;BME280;2545;50.892;5.740;2023-03-17T07:02:51;56259.16;;;-142.21;54.73
5053;BME280;2545;50.892;5.740;2023-03-17T07:05:16;56233.66;;;-142.21;54.24
5053;BME280;2545;50.892;5.740;2023-03-17T07:07:42;56237.59;;;-142.21;54.85
5053;BME280;2545;50.892;5.740;2023-03-17T07:10:09;56219.94;;;-142.21;54.42
5053;BME280;2545;50.892;5.740;2023-03-17T07:12:35;56253.28;;;-142.21;54.74
5053;BME280;2545;50.892;5.740;2023-03-17T07:15:02;56272.88;;;-142.21;55.26
5053;BME280;2545;50.892;5.740;2023-03-17T07:17:27;56227.78;;;-142.21;54.60
5053;BME280;2545;50.892;5.740;2023-03-17T07:19:54;56214.06;;;-142.21;54.88
5053;BME280;2545;50.892;5.740;2023-03-17T07:22:19;56267.00;;;-142.21;54.35
5053;BME280;2545;50.892;5.740;2023-03-17T07:24:45;56255.22;;;-142.21;54.74
5053;BME280;2545;50.892;5.740;2023-03-17T07:27:13;56221.91;;;-142.21;54.58
5053;BME280;2545;50.892;5.740;2023-03-17T07:29:38;56257.19;;;-142.21;54.82
5053;BME280;2545;50.892;5.740;2023-03-17T07:32:04;56219.94;;;-142.21;54.21
5053;BME280;2545;50.892;5.740;2023-03-17T07:34:31;56257.19;;;-142.21;54.57
5053;BME280;2545;50.892;5.740;2023-03-17T07:36:56;56259.16;;;-142.21;54.62
5053;BME280;2545;50.892;5.740;2023-03-17T07:39:21;56223.84;;;-142.21;54.43
5053;BME280;2545;50.892;5.740;2023-03-17T07:41:47;56223.84;;;-142.21;54.21
5053;BME280;2545;50.892;5.740;2023-03-17T07:44:17;56253.28;;;-142.21;53.97
5053;BME280;2545;50.892;5.740;2023-03-17T07:46:43;56219.94;;;-142.21;53.28
5053;BME280;2545;50.892;5.740;2023-03-17T07:49:10;56257.19;;;-142.21;53.07
5053;BME280;2545;50.892;5.740;2023-03-17T07:51:37;56272.88;;;-142.21;52.40
5053;BME280;2545;50.892;5.740;2023-03-17T07:54:03;56233.66;;;-142.21;52.31
5053;BME280;2545;50.892;5.740;2023-03-17T07:56:31;56198.38;;;-142.21;51.19
5053;BME280;2545;50.892;5.740;2023-03-17T07:58:56;56255.22;;;-142.21;50.99
5053;BME280;2545;50.892;5.740;2023-03-17T08:01:24;56239.56;;;-142.21;50.51
5053;BME280;2545;50.892;5.740;2023-03-17T08:03:50;56251.31;;;-142.21;50.06
5053;BME280;2545;50.892;5.740;2023-03-17T08:06:15;56267.00;;;-142.21;50.08
5053;BME280;2545;50.892;5.740;2023-03-17T08:08:40;56235.63;;;-142.21;49.46
5053;BME280;2545;50.892;5.740;2023-03-17T08:11:06;56223.84;;;-142.21;49.36
5053;BME280;2545;50.892;5.740;2023-03-17T08:13:32;56253.28;;;-142.21;49.21
5053;BME280;2545;50.892;5.740;2023-03-17T08:15:58;56210.13;;;-142.21;48.22
5053;BME280;2545;50.892;5.740;2023-03-17T08:18:24;56229.75;;;-142.21;47.64
5053;BME280;2545;50.892;5.740;2023-03-17T08:20:50;56225.81;;;-142.21;47.80
5053;BME280;2545;50.892;5.740;2023-03-17T08:23:17;56214.06;;;-142.21;48.02
5053;BME280;2545;50.892;5.740;2023-03-17T08:25:42;56259.16;;;-142.21;48.39
5053;BME280;2545;50.892;5.740;2023-03-17T08:28:08;56243.47;;;-142.21;47.85
5053;BME280;2545;50.892;5.740;2023-03-17T08:30:34;56251.31;;;-142.21;48.05
5053;BME280;2545;50.892;5.740;2023-03-17T08:33:01;56219.94;;;-142.21;46.91
5053;BME280;2545;50.892;5.740;2023-03-17T08:35:27;56243.47;;;-142.21;47.27
5053;BME280;2545;50.892;5.740;2023-03-17T08:37:52;56198.38;;;-142.21;46.73
5053;BME280;2545;50.892;5.740;2023-03-17T08:40:18;56198.38;;;-142.21;46.36
5053;BME280;2545;50.892;5.740;2023-03-17T08:42:45;56263.06;;;-142.21;46.04
5053;BME280;2545;50.892;5.740;2023-03-17T08:45:12;56198.38;;;-142.21;45.77
5053;BME280;2545;50.892;5.740;2023-03-17T08:47:37;56249.34;;;-142.21;45.41
5053;BME280;2545;50.892;5.740;2023-03-17T08:50:07;56241.50;;;-142.21;45.26
5053;BME280;2545;50.892;5.740;2023-03-17T08:52:34;56206.22;;;-142.21;44.84
5053;BME280;2545;50.892;5.740;2023-03-17T08:55:01;56212.09;;;-142.21;44.76
5053;BME280;2545;50.892;5.740;2023-03-17T08:57:26;56214.06;;;-142.21;44.68
5053;BME280;2545;50.892;5.740;2023-03-17T08:59:52;56231.72;;;-142.21;44.14
5053;BME280;2545;50.892;5.740;2023-03-17T09:02:17;56200.34;;;-142.21;44.02
5053;BME280;2545;50.892;5.740;2023-03-17T09:04:43;56233.66;;;-142.21;44.00
5053;BME280;2545;50.892;5.740;2023-03-17T09:07:08;56188.56;;;-142.21;44.20
5053;BME280;2545;50.892;5.740;2023-03-17T09:09:35;56210.13;;;-142.21;44.00
5053;BME280;2545;50.892;5.740;2023-03-17T09:12:01;56221.91;;;-142.21;44.30
5053;BME280;2545;50.892;5.740;2023-03-17T09:14:29;56206.22;;;-142.21;44.20
5053;BME280;2545;50.892;5.740;2023-03-17T09:16:54;56216.00;;;-142.21;43.87
5053;BME280;2545;50.892;5.740;2023-03-17T09:19:21;56170.91;;;-142.21;43.80
5053;BME280;2545;50.892;5.740;2023-03-17T09:21:46;56216.00;;;-142.21;43.78
5053;BME280;2545;50.892;5.740;2023-03-17T09:24:12;56239.56;;;-142.21;43.72
5053;BME280;2545;50.892;5.740;2023-03-17T09:26:38;56212.09;;;-142.21;43.81
5053;BME280;2545;50.892;5.740;2023-03-17T09:29:03;56198.38;;;-142.21;44.02
5053;BME280;2545;50.892;5.740;2023-03-17T09:31:30;56202.28;;;-142.21;44.37
5053;BME280;2545;50.892;5.740;2023-03-17T09:33:55;56210.13;;;-142.21;44.13
5053;BME280;2545;50.892;5.740;2023-03-17T09:36:20;56231.72;;;-142.21;44.30
5053;BME280;2545;50.892;5.740;2023-03-17T09:38:46;56210.13;;;-142.21;43.41
5053;BME280;2545;50.892;5.740;2023-03-17T09:41:22;56190.53;;;-142.21;43.16
5053;BME280;2545;50.892;5.740;2023-03-17T09:49:47;56231.72;;;-142.21;43.25
5053;BME280;2545;50.892;5.740;2023-03-17T09:52:15;56194.44;;;-142.21;42.97
5053;BME280;2545;50.892;5.740;2023-03-17T09:54:43;56192.50;;;-142.21;42.79
5053;BME280;2545;50.892;5.740;2023-03-17T09:57:20;56208.16;;;-142.21;41.88
5053;BME280;2545;50.892;5.740;2023-03-17T09:59:49;56212.09;;;-142.21;41.77
5053;BME280;2545;50.892;5.740;2023-03-17T10:02:30;56206.22;;;-142.21;41.97
5053;BME280;2545;50.892;5.740;2023-03-17T10:04:57;56206.22;;;-142.21;41.01
5053;BME280;2545;50.892;5.740;2023-03-17T10:07:27;56227.78;;;-142.21;39.82
5053;BME280;2545;50.892;5.740;2023-03-17T10:09:59;56196.41;;;-142.21;39.19
5053;BME280;2545;50.892;5.740;2023-03-17T10:14:57;56182.69;;;-142.21;38.13
5053;BME280;2545;50.892;5.740;2023-03-17T10:17:27;56196.41;;;-142.21;37.37
5053;BME280;2545;50.892;5.740;2023-03-17T10:20:12;56165.03;;;-142.21;36.14
5053;BME280;2545;50.892;5.740;2023-03-17T10:22:46;56172.88;;;-142.21;35.35
5053;BME280;2545;50.892;5.740;2023-03-17T10:25:20;56161.13;;;-142.21;34.89
5053;BME280;2545;50.892;5.740;2023-03-17T10:27:57;56117.97;;;-142.21;35.58
5053;BME280;2545;50.892;5.740;2023-03-17T10:30:24;56141.50;;;-142.21;36.63
5053;BME280;2545;50.892;5.740;2023-03-17T10:32:51;56127.78;;;-142.21;36.87
5053;BME280;2545;50.892;5.740;2023-03-17T10:35:18;56182.69;;;-142.21;37.53
5053;BME280;2545;50.892;5.740;2023-03-17T10:37:45;56149.34;;;-142.21;37.70
5053;BME280;2545;50.892;5.740;2023-03-17T10:40:26;56178.75;;;-142.21;38.57
5053;BME280;2545;50.892;5.740;2023-03-17T10:43:06;56168.97;;;-142.21;38.76
5053;BME280;2545;50.892;5.740;2023-03-17T10:45:37;56167.00;;;-142.21;39.78
5053;BME280;2545;50.892;5.740;2023-03-17T10:48:08;56153.28;;;-142.21;39.91
5053;BME280;2545;50.892;5.740;2023-03-17T10:50:36;56170.91;;;-142.21;38.91
5053;BME280;2545;50.892;5.740;2023-03-17T10:55:41;56182.69;;;-142.21;38.43
5053;BME280;2545;50.892;5.740;2023-03-17T10:58:14;56165.03;;;-142.21;38.74
5053;BME280;2545;50.892;5.740;2023-03-17T11:01:09;56151.31;;;-142.21;38.92
5053;BME280;2545;50.892;5.740;2023-03-17T11:03:39;56149.34;;;-142.21;39.19
5053;BME280;2545;50.892;5.740;2023-03-17T11:06:08;56186.59;;;-142.21;38.64
5053;BME280;2545;50.892;5.740;2023-03-17T11:08:54;56129.75;;;-142.21;36.55
5053;BME280;2545;50.892;5.740;2023-03-17T11:11:24;56233.66;;;-142.21;36.63
5053;BME280;2545;50.892;5.740;2023-03-17T11:13:53;56168.97;;;-142.21;36.84
5053;BME280;2545;50.892;5.740;2023-03-17T11:16:25;56174.84;;;-142.21;36.70
5053;BME280;2545;50.892;5.740;2023-03-17T11:18:53;56131.69;;;-142.21;36.32
5053;BME280;2545;50.892;5.740;2023-03-17T11:21:29;56131.69;;;-142.21;35.31
5053;BME280;2545;50.892;5.740;2023-03-17T11:24:50;56139.53;;;-142.21;34.46
5053;BME280;2545;50.892;5.740;2023-03-17T11:27:01;56090.53;;;-142.21;34.39
5053;BME280;2545;50.892;5.740;2023-03-17T11:29:50;56163.06;;;-142.21;33.74
5053;BME280;2545;50.892;5.740;2023-03-17T11:32:40;56088.56;;;-142.21;33.08
5053;BME280;2545;50.892;5.740;2023-03-17T11:38:10;56104.25;;;-142.21;33.62
5053;BME280;2545;50.892;5.740;2023-03-17T11:43:42;56159.16;;;-142.21;34.04
5053;BME280;2545;50.892;5.740;2023-03-17T11:48:50;56116.00;;;-142.21;33.08
5053;BME280;2545;50.892;5.740;2023-03-17T11:51:27;56096.41;;;-142.21;32.90
5053;BME280;2545;50.892;5.740;2023-03-17T11:54:20;56112.09;;;-142.21;32.88
5053;BME280;2545;50.892;5.740;2023-03-17T11:56:44;56061.09;;;-142.21;32.71
5053;BME280;2545;50.892;5.740;2023-03-17T12:01:47;56088.56;;;-142.21;34.19
5053;BME280;2545;50.892;5.740;2023-03-17T12:04:25;56145.44;;;-142.21;34.87
5053;BME280;2545;50.892;5.740;2023-03-17T12:07:12;56092.47;;;-142.21;34.87
5053;BME280;2545;50.892;5.740;2023-03-17T12:09:45;56084.63;;;-142.21;33.80
5053;BME280;2545;50.892;5.740;2023-03-17T12:12:14;56090.53;;;-142.21;33.64
5053;BME280;2545;50.892;5.740;2023-03-17T12:14:46;56098.38;;;-142.21;33.39
5053;BME280;2545;50.892;5.740;2023-03-17T12:19:50;56078.75;;;-142.21;33.12
5053;BME280;2545;50.892;5.740;2023-03-17T12:22:28;56125.81;;;-142.21;34.00
5053;BME280;2545;50.892;5.740;2023-03-17T12:25:11;56100.31;;;-142.21;34.55
5053;BME280;2545;50.892;5.740;2023-03-17T12:28:19;56104.25;;;-142.21;34.64
5053;BME280;2545;50.892;5.740;2023-03-17T12:31:07;56106.22;;;-142.21;33.55
5053;BME280;2545;50.892;5.740;2023-03-17T12:33:44;56094.44;;;-142.21;32.15
5053;BME280;2545;50.892;5.740;2023-03-17T12:36:13;56102.28;;;-142.21;31.72
5053;BME280;2545;50.892;5.740;2023-03-17T12:55:33;56135.63;;;-142.21;33.82
5053;BME280;2545;50.892;5.740;2023-03-17T13:00:48;56127.78;;;-142.21;34.03
5053;BME280;2545;50.892;5.740;2023-03-17T13:03:31;56125.81;;;-142.21;34.07
5053;BME280;2545;50.892;5.740;2023-03-17T13:06:02;56123.84;;;-142.21;33.18
5053;BME280;2545;50.892;5.740;2023-03-17T13:08:35;56110.13;;;-142.21;34.02
5053;BME280;2545;50.892;5.740;2023-03-17T13:14:26;56112.09;;;-142.21;35.83
5053;BME280;2545;50.892;5.740;2023-03-17T13:20:10;56114.06;;;-142.21;36.21
5053;BME280;2545;50.892;5.740;2023-03-17T13:25:54;56137.59;;;-142.21;35.76
5053;BME280;2545;50.892;5.740;2023-03-17T13:33:30;56096.41;;;-142.21;34.96
5053;BME280;2545;50.892;5.740;2023-03-17T13:38:40;56080.72;;;-142.21;34.99
5053;BME280;2545;50.892;5.740;2023-03-17T13:44:12;56078.75;;;-142.21;33.58
5053;BME280;2545;50.892;5.740;2023-03-17T13:46:43;56123.84;;;-142.21;34.95
5053;BME280;2545;50.892;5.740;2023-03-17T13:51:42;56088.56;;;-142.21;35.26
5053;BME280;2545;50.892;5.740;2023-03-17T13:56:54;56117.97;;;-142.21;35.23
5053;BME280;2545;50.892;5.740;2023-03-17T13:59:23;56106.22;;;-142.21;35.14
5053;BME280;2545;50.892;5.740;2023-03-17T14:02:00;56135.63;;;-142.21;35.04
5053;BME280;2545;50.892;5.740;2023-03-17T14:07:19;56114.06;;;-142.21;35.58
5053;BME280;2545;50.892;5.740;2023-03-17T14:09:45;56108.16;;;-142.21;35.48
5053;BME280;2545;50.892;5.740;2023-03-17T14:12:24;56143.47;;;-142.21;35.60
5053;BME280;2545;50.892;5.740;2023-03-17T14:15:07;56131.69;;;-142.21;36.12
5053;BME280;2545;50.892;5.740;2023-03-17T14:17:49;56116.00;;;-142.21;36.15
5053;BME280;2545;50.892;5.740;2023-03-17T14:20:23;56117.97;;;-142.21;36.58
5053;BME280;2545;50.892;5.740;2023-03-17T14:22:55;56098.38;;;-142.21;36.93
5053;BME280;2545;50.892;5.740;2023-03-17T14:25:23;56143.47;;;-142.21;37.16
5053;BME280;2545;50.892;5.740;2023-03-17T14:27:55;56114.06;;;-142.21;37.11
5053;BME280;2545;50.892;5.740;2023-03-17T14:30:23;56098.38;;;-142.21;37.33